»·PEaware :: N414CG KSNA-KCRQ

N414CG :: KSNA-KCRQ

FLIGHT INFORMATION

Flight Status: Arrived
Operator: Privately registered:
United States
More flights under this callsign
Pilot: Oakley M. (39269)
Aircraft: SOCATA TBM-900
(TBM9)
More flights by this aircraft type
Origin: KSNA John Wayne-Orange Co
United States
Destination: KCRQ McClellan-Palomar
United States
More flights between these airports :: More routes between these airports
Route: MUSEL8 RV V25 PACIF V208 OCN
File this flight plan on PilotEdge
Remarks:
Altitude:
(Current/Filed)
7,000ft
Speed:
(Current/Filed)
200kts
Departed: 06-Jul-22 11:08 AM
Arrived: 06-Jul-22 12:26 PM
Distance/Time
Traveled:
44nm/1:17
Distance/Time
To Go:
Arrived

Flight Plot

Page will automatically refresh every two minutes.

Flight plan parsing failed; only flown route is shown


Map Options




Map Legend


Flown Route
Filed Route
Departure Airport
Arrival Airport
Navaid (VOR, NDB)
Fix

Horizontal Profiles

Position Reports

Time Latitude Longitude Heading Altitude Ground
Speed
06-Jul-22 10:51 33.675420 -117.871470 359 52ft 0kts
06-Jul-22 10:52 33.675420 -117.871470 359 52ft 0kts
06-Jul-22 10:53 33.675420 -117.871470 359 52ft 0kts
06-Jul-22 10:54 33.675420 -117.871470 359 52ft 0kts
06-Jul-22 10:55 33.675420 -117.871470 359 52ft 0kts
06-Jul-22 10:56 33.675420 -117.871470 359 52ft 0kts
06-Jul-22 10:57 33.675420 -117.871470 359 52ft 0kts
06-Jul-22 10:58 33.675420 -117.871470 359 52ft 0kts
06-Jul-22 10:59 33.675420 -117.871470 359 52ft 0kts
06-Jul-22 11:00 33.675420 -117.871470 359 52ft 0kts
06-Jul-22 11:01 33.675420 -117.871470 359 52ft 0kts
06-Jul-22 11:02 33.675312 -117.871014 130 51ft 8kts
06-Jul-22 11:03 33.678785 -117.868401 25 49ft 23kts
06-Jul-22 11:04 33.681894 -117.866022 96 41ft 0kts
06-Jul-22 11:05 33.681894 -117.866022 96 41ft 0kts
06-Jul-22 11:06 33.680518 -117.865812 208 43ft 35kts
06-Jul-22 11:07 33.646716 -117.885214 205 1109ft 175kts
06-Jul-22 11:08 33.598370 -117.904826 198 2755ft 192kts
06-Jul-22 11:09 33.545992 -117.925545 198 4346ft 202kts
06-Jul-22 11:10 33.492109 -117.946954 198 5770ft 208kts
06-Jul-22 11:11 33.450486 -117.911433 115 6473ft 205kts
06-Jul-22 11:12 33.428145 -117.858460 118 7009ft 166kts
06-Jul-22 11:38 33.675672 -117.871300 354 52ft 0kts
06-Jul-22 11:39 33.675672 -117.871300 354 52ft 0kts
06-Jul-22 11:40 33.675672 -117.871300 354 52ft 0kts
06-Jul-22 11:41 33.675672 -117.871300 354 52ft 0kts
06-Jul-22 11:42 33.675672 -117.871300 354 52ft 0kts
06-Jul-22 11:43 33.675672 -117.871300 354 52ft 0kts
06-Jul-22 11:44 33.675672 -117.871300 354 52ft 0kts
06-Jul-22 11:45 33.675672 -117.871300 354 52ft 0kts
06-Jul-22 11:46 33.675941 -117.870196 26 54ft 11kts
06-Jul-22 11:47 33.680800 -117.867318 27 43ft 27kts
06-Jul-22 11:48 33.681706 -117.865482 122 40ft 13kts
06-Jul-22 11:49 33.665963 -117.874956 210 417ft 152kts
06-Jul-22 11:50 33.619884 -117.903468 192 2128ft 207kts
06-Jul-22 11:51 33.564430 -117.917944 199 3632ft 201kts
06-Jul-22 11:52 33.511061 -117.939443 198 5097ft 203kts
06-Jul-22 11:53 33.458031 -117.937614 148 6549ft 204kts
06-Jul-22 11:54 33.411342 -117.889975 138 7024ft 235kts
06-Jul-22 11:55 33.362864 -117.835130 137 6986ft 243kts
06-Jul-22 11:56 33.313561 -117.779317 137 6985ft 243kts
06-Jul-22 11:57 33.283827 -117.717465 108 6975ft 184kts
06-Jul-22 11:58 33.274126 -117.660777 101 6688ft 185kts
06-Jul-22 11:59 33.264288 -117.589573 99 5343ft 239kts
06-Jul-22 12:00 33.254105 -117.517943 109 4995ft 189kts
06-Jul-22 12:01 33.228761 -117.464182 121 5009ft 209kts
06-Jul-22 12:02 33.197069 -117.401367 121 5002ft 226kts
06-Jul-22 12:03 33.164572 -117.337132 121 5060ft 220kts
06-Jul-22 12:04 33.136358 -117.281369 120 5028ft 176kts
06-Jul-22 12:05 33.113983 -117.237579 121 5058ft 205kts
06-Jul-22 12:06 33.084255 -117.179349 121 5030ft 203kts
06-Jul-22 12:07 33.068200 -117.118289 92 5089ft 216kts
06-Jul-22 12:08 33.065673 -117.040959 91 5055ft 241kts
06-Jul-22 12:09 33.080546 -116.972724 71 5006ft 187kts
06-Jul-22 12:10 33.109181 -116.928699 5 5025ft 185kts
06-Jul-22 12:11 33.162446 -116.925323 1 4981ft 213kts
06-Jul-22 12:12 33.207414 -116.954720 260 5028ft 227kts
06-Jul-22 12:13 33.192076 -117.015509 251 4932ft 151kts
06-Jul-22 12:14 33.178783 -117.061266 251 4943ft 137kts
06-Jul-22 12:15 33.160274 -117.060487 103 4530ft 180kts
06-Jul-22 12:16 33.148191 -116.996300 100 4240ft 196kts
06-Jul-22 12:17 33.178112 -116.989878 286 4215ft 184kts
06-Jul-22 12:18 33.170175 -117.049433 224 3595ft 185kts
06-Jul-22 12:19 33.154040 -117.102157 263 3395ft 162kts
06-Jul-22 12:20 33.148552 -117.149361 262 2726ft 127kts
06-Jul-22 12:21 33.143581 -117.185522 259 2122ft 107kts
06-Jul-22 12:22 33.138013 -117.220242 259 1379ft 94kts
06-Jul-22 12:23 33.133224 -117.249520 257 805ft 92kts
06-Jul-22 12:24 33.128509 -117.278399 259 330ft 72kts
06-Jul-22 12:25 33.127197 -117.282637 154 332ft 0kts
06-Jul-22 12:26 33.127424 -117.280048 78 331ft 20kts
06-Jul-22 12:27 33.127484 -117.274651 156 327ft 11kts
06-Jul-22 12:28 33.127438 -117.274627 156 327ft 0kts
06-Jul-22 12:29 33.127438 -117.274627 156 327ft 0kts

Navigation Log

Ident Type
Flight plan parsing failed, navigation log unavailable